Vyacheslav Tikhonov — UBSH6 — position and weather

sailwx.info

Track history (hours):
 
Tides and Currents Weather Stations Pressure Air Temp Water Temp Dewpoint Dewpoint Depression Visibility Wind Speed Wind Dir Waves Ship Positions

Vyacheslav Tikhonov

Last reported at 2015-Mar-16 10:22 UTC. Time now 2015-Apr-01 09:28 UTC.
Position N 51°38' E 002°26'.
Warning: this ship's position is 15 days out of date.

Length 84 m; draft 6.8 m.

Type: Other ship. MMSI: 273350140.

Date/timePositionNaut miles runAvg speedWind from/ knotsBaromVisibWave heightAir tempDewpointWater temp
2015-Mar-16 10:22N 51°38' E 002°26'910.5
2015-Mar-16 09:33N 51°31' E 002°17'1010.4
2015-Mar-16 08:34N 51°22' E 002°10'1010.2
2015-Mar-16 07:34N 51°13' E 002°01'1110.3
2015-Mar-16 06:32N 51°08' E 001°47'1010.3
2015-Mar-16 05:32N 51°01' E 001°35'60 9.5
2015-Mar-15 23:16N 50°23' E 000°22'  
2015-Mar-12 13:22N 38°51' W 009°52'1511.5
2015-Mar-12 12:05N 38°36' W 009°50'711.8
2015-Mar-12 11:31N 38°29' W 009°48'2211.4
2015-Mar-12 09:33N 38°08' W 009°41'1111.0
2015-Mar-12 08:32N 37°57' W 009°38'1210.7
2015-Mar-12 07:26N 37°45' W 009°35'4310.9
2015-Mar-12 03:29N 37°04' W 009°22'2110.9
2015-Mar-12 01:32N 36°45' W 009°09'1211.2
2015-Mar-12 00:29N 36°41' W 008°55'1011.1
2015-Mar-11 23:33N 36°38' W 008°43'1110.8
2015-Mar-11 22:33N 36°35' W 008°30'1110.8
2015-Mar-11 21:30N 36°31' W 008°17'1010.9
2015-Mar-11 20:33N 36°28' W 008°05'1110.8
2015-Mar-11 19:33N 36°24' W 007°52'2311.1
2015-Mar-11 17:27N 36°17' W 007°25'1011.5
2015-Mar-11 16:33N 36°14' W 007°13'8011.0
2015-Mar-11 09:17N 35°57' W 005°36'7 9.6
2015-Mar-11 08:33N 35°60' W 005°28'10 9.9
2015-Mar-11 07:34N 36°02' W 005°16'178 8.8
2015-Mar-10 11:14N 36°19' W 001°36'3111.5
2015-Mar-10 08:33N 36°25' W 000°59'1210.5
2015-Mar-10 07:23N 36°28' W 000°44'911.3
2015-Mar-10 06:33N 36°30' W 000°32'1110.5
2015-Mar-10 05:28N 36°32' W 000°19'2210.4
2015-Mar-10 03:22N 36°36' E 000°08'6811.1
2015-Mar-09 21:12N 36°50' E 001°32'2011.0
2015-Mar-09 19:25N 36°54' E 001°56'1011.1
2015-Mar-09 18:33N 36°56' E 002°07'54910.8
2015-Mar-07 15:33N 36°52' E 013°34'1111.2
2015-Mar-07 14:33N 36°49' E 013°48'1010.5
2015-Mar-07 13:33N 36°46' E 014°00'1110.6
2015-Mar-07 12:33N 36°43' E 014°13'1411.4
2015-Mar-07 11:22N 36°39' E 014°29'  
Track history (hours):
 
Tides and Currents Weather Stations Pressure Air Temp Water Temp Dewpoint Dewpoint Depression Visibility Wind Speed Wind Dir Waves Ship Positions

Vyacheslav Tikhonov

Last reported at 2015-Mar-16 10:22 UTC. Time now 2015-Apr-01 09:28 UTC.
Position N 51°38' E 002°26'.
Warning: this ship's position is 15 days out of date.

Length 84 m; draft 6.8 m.

Type: Other ship. MMSI: 273350140.

Date/timePositionNaut miles runAvg speedWind from/ knotsBaromVisibWave heightAir tempDewpointWater temp
2015-Mar-16 10:22N 51°38' E 002°26'910.5
2015-Mar-16 09:33N 51°31' E 002°17'1010.4
2015-Mar-16 08:34N 51°22' E 002°10'1010.2
2015-Mar-16 07:34N 51°13' E 002°01'1110.3
2015-Mar-16 06:32N 51°08' E 001°47'1010.3
2015-Mar-16 05:32N 51°01' E 001°35'60 9.5
2015-Mar-15 23:16N 50°23' E 000°22'  
2015-Mar-12 13:22N 38°51' W 009°52'1511.5
2015-Mar-12 12:05N 38°36' W 009°50'711.8
2015-Mar-12 11:31N 38°29' W 009°48'2211.4
2015-Mar-12 09:33N 38°08' W 009°41'1111.0
2015-Mar-12 08:32N 37°57' W 009°38'1210.7
2015-Mar-12 07:26N 37°45' W 009°35'4310.9
2015-Mar-12 03:29N 37°04' W 009°22'2110.9
2015-Mar-12 01:32N 36°45' W 009°09'1211.2
2015-Mar-12 00:29N 36°41' W 008°55'1011.1
2015-Mar-11 23:33N 36°38' W 008°43'1110.8
2015-Mar-11 22:33N 36°35' W 008°30'1110.8
2015-Mar-11 21:30N 36°31' W 008°17'1010.9
2015-Mar-11 20:33N 36°28' W 008°05'1110.8
2015-Mar-11 19:33N 36°24' W 007°52'2311.1
2015-Mar-11 17:27N 36°17' W 007°25'1011.5
2015-Mar-11 16:33N 36°14' W 007°13'8011.0
2015-Mar-11 09:17N 35°57' W 005°36'7 9.6
2015-Mar-11 08:33N 35°60' W 005°28'10 9.9
2015-Mar-11 07:34N 36°02' W 005°16'178 8.8
2015-Mar-10 11:14N 36°19' W 001°36'3111.5
2015-Mar-10 08:33N 36°25' W 000°59'1210.5
2015-Mar-10 07:23N 36°28' W 000°44'911.3
2015-Mar-10 06:33N 36°30' W 000°32'1110.5
2015-Mar-10 05:28N 36°32' W 000°19'2210.4
2015-Mar-10 03:22N 36°36' E 000°08'6811.1
2015-Mar-09 21:12N 36°50' E 001°32'2011.0
2015-Mar-09 19:25N 36°54' E 001°56'1011.1
2015-Mar-09 18:33N 36°56' E 002°07'54910.8
2015-Mar-07 15:33N 36°52' E 013°34'1111.2
2015-Mar-07 14:33N 36°49' E 013°48'1010.5
2015-Mar-07 13:33N 36°46' E 014°00'1110.6
2015-Mar-07 12:33N 36°43' E 014°13'1411.4
2015-Mar-07 11:22N 36°39' E 014°29'  

Dump ship's entire track history